Time;durP1;ratioP1;P1;durP2;ratioP2;P2;SDS_P1;SDS_P2;PMS_P1;PMS_P2;Temp;Humidity;BMP_temperature;BMP_pressure;BME280_temperature;BME280_humidity;BME280_pressure;Samples;Min_cycle;Max_cycle;Signal;HPM_P1;HPM_P2
2022/12/24 00:02:14;;;;;;;3.40;2.57;;;8.20;99.90;8.10;99139.00;;;;4946991;28;118193;-77
2022/12/24 00:04:40;;;;;;;4.60;2.73;;;8.40;99.90;8.10;99123.00;;;;4950266;28;117593;-77
2022/12/24 00:07:05;;;;;;;3.80;2.47;;;8.30;99.90;8.10;99120.00;;;;4950971;28;110104;-74
2022/12/24 00:09:31;;;;;;;4.37;2.67;;;8.30;99.90;8.00;99120.00;;;;4948762;28;107364;-75
2022/12/24 00:11:57;;;;;;;2.20;2.00;;;8.20;99.90;8.00;99124.00;;;;4981051;28;116602;-75
2022/12/24 00:14:25;;;;;;;1.90;1.70;;;8.20;99.90;8.10;99129.00;;;;4989827;28;115778;-76
2022/12/24 00:16:51;;;;;;;4.23;2.20;;;8.20;99.90;8.10;99130.00;;;;4977164;28;88545;-77
2022/12/24 00:19:17;;;;;;;2.27;1.90;;;8.20;99.90;8.20;99124.00;;;;4984963;28;108033;-77
2022/12/24 00:21:42;;;;;;;1.70;1.60;;;8.30;99.90;8.20;99125.00;;;;4971364;28;117217;-76
2022/12/24 00:24:08;;;;;;;2.10;1.87;;;8.30;99.90;8.30;99131.00;;;;4989224;28;117403;-73
2022/12/24 00:26:34;;;;;;;2.03;1.43;;;8.30;99.90;8.30;99128.00;;;;4990314;28;110599;-76
2022/12/24 00:29:00;;;;;;;4.40;2.50;;;8.40;99.90;8.30;99133.00;;;;4990555;28;97819;-76
2022/12/24 00:31:26;;;;;;;1.73;1.50;;;8.40;99.90;8.30;99133.00;;;;4971064;28;118844;-75
2022/12/24 00:33:52;;;;;;;1.87;1.30;;;8.40;99.90;8.30;99145.00;;;;4988917;28;116384;-77
2022/12/24 00:36:19;;;;;;;2.83;1.20;;;8.40;99.90;8.30;99144.00;;;;4987862;28;106207;-78
2022/12/24 00:38:45;;;;;;;2.13;1.60;;;8.40;99.90;8.30;99144.00;;;;4989557;28;87701;-75
2022/12/24 00:41:24;;;;;;;1.63;1.47;;;8.40;99.90;8.40;99147.00;;;;4976294;28;90819;-75
2022/12/24 00:43:59;;;;;;;1.13;1.03;;;8.50;99.90;8.50;99152.00;;;;4987549;27;90171;-77
2022/12/24 00:46:27;;;;;;;1.83;1.33;;;8.60;99.90;8.50;99160.00;;;;4971170;28;89527;-75
2022/12/24 00:48:53;;;;;;;2.13;1.23;;;8.60;99.90;8.50;99158.00;;;;4973799;28;92486;-75
2022/12/24 00:51:20;;;;;;;0.93;0.90;;;8.60;99.90;8.60;99161.00;;;;4988707;28;116995;-75
2022/12/24 00:53:46;;;;;;;1.70;1.57;;;8.60;99.90;8.60;99166.00;;;;4975145;28;89386;-76
2022/12/24 00:56:12;;;;;;;1.43;1.07;;;8.70;99.90;8.70;99155.00;;;;4966561;28;110618;-76
2022/12/24 00:58:37;;;;;;;1.37;1.07;;;8.80;99.90;8.80;99163.00;;;;4987577;28;108721;-76
2022/12/24 01:01:04;;;;;;;2.83;1.20;;;8.80;99.90;8.90;99183.00;;;;4987683;28;96804;-77
2022/12/24 01:03:36;;;;;;;4.93;1.20;;;9.00;99.90;9.10;99171.00;;;;4971357;28;88088;-77
2022/12/24 01:06:14;;;;;;;1.23;1.10;;;9.10;99.90;9.10;99185.00;;;;4976053;28;87902;-78
2022/12/24 01:08:40;;;;;;;2.77;1.00;;;9.20;99.90;9.30;99184.00;;;;4988881;27;87995;-78
2022/12/24 01:11:08;;;;;;;1.30;0.93;;;9.30;99.90;9.40;99185.00;;;;4972888;28;112557;-78
2022/12/24 01:13:34;;;;;;;2.23;1.23;;;9.40;99.90;9.50;99179.00;;;;4976946;28;105024;-78
2022/12/24 01:16:00;;;;;;;3.10;0.93;;;9.50;99.90;9.50;99187.00;;;;4973053;28;99094;-76
2022/12/24 01:18:26;;;;;;;2.03;1.23;;;9.60;99.90;9.60;99191.00;;;;4992664;28;103378;-77
2022/12/24 01:21:01;;;;;;;0.73;0.73;;;9.60;99.90;9.70;99195.00;;;;4976226;28;119085;-78
2022/12/24 01:23:28;;;;;;;3.77;1.37;;;9.70;99.90;9.70;99199.00;;;;4957697;28;101615;-78
2022/12/24 01:25:54;;;;;;;3.77;0.70;;;9.80;99.90;9.80;99197.00;;;;4977366;28;88280;-77
2022/12/24 01:28:20;;;;;;;0.93;0.47;;;9.80;99.90;9.80;99193.00;;;;4989253;28;106910;-78
2022/12/24 01:30:47;;;;;;;1.30;0.67;;;9.90;99.90;9.90;99203.00;;;;4991515;28;116178;-76
2022/12/24 01:33:13;;;;;;;1.00;0.60;;;9.90;99.90;9.90;99203.00;;;;4955916;28;103804;-77
2022/12/24 01:35:41;;;;;;;0.73;0.43;;;10.00;99.90;9.90;99213.00;;;;4961448;28;91344;-77
2022/12/24 01:38:06;;;;;;;0.80;0.53;;;10.00;99.90;9.90;99212.00;;;;4961833;28;87041;-76
2022/12/24 01:43:22;;;;;;;0.97;0.50;;;10.00;99.90;10.00;99221.00;;;;4989019;28;87680;-72
2022/12/24 01:45:59;;;;;;;0.87;0.43;;;10.00;99.90;10.00;99233.00;;;;4993626;28;88813;-74
2022/12/24 01:48:44;;;;;;;0.70;0.60;;;10.10;99.90;10.00;99231.00;;;;4974548;28;89145;-74
2022/12/24 01:51:29;;;;;;;0.93;0.63;;;10.10;99.90;10.10;99239.00;;;;4974731;28;87652;-72
2022/12/24 01:54:28;;;;;;;1.73;0.80;;;10.20;99.90;10.10;99252.00;;;;4978107;28;87866;-72
2022/12/24 01:57:01;;;;;;;0.77;0.60;;;10.20;99.90;10.10;99255.00;;;;4983964;27;105586;-70
2022/12/24 01:59:27;;;;;;;1.27;0.70;;;10.20;99.90;10.20;99254.00;;;;4992313;27;88212;-69
2022/12/24 02:01:53;;;;;;;0.57;0.57;;;10.20;99.90;10.20;99249.00;;;;4994596;27;117804;-70
2022/12/24 02:04:40;;;;;;;0.93;0.57;;;10.20;99.90;10.20;99257.00;;;;4989945;28;118516;-69
2022/12/24 02:07:05;;;;;;;1.00;0.90;;;10.30;99.90;10.20;99258.00;;;;4976783;28;87908;-69
2022/12/24 02:09:33;;;;;;;2.00;0.90;;;10.30;99.90;10.20;99247.00;;;;4991218;28;88094;-69
2022/12/24 02:11:59;;;;;;;0.77;0.73;;;10.30;99.90;10.20;99246.00;;;;4972540;28;91079;-70
2022/12/24 02:14:28;;;;;;;1.60;1.17;;;10.30;99.90;10.20;99267.00;;;;4970202;28;118371;-67
2022/12/24 02:17:15;;;;;;;4.43;0.73;;;10.30;99.90;10.20;99271.00;;;;4973054;28;87876;-67
2022/12/24 02:20:37;;;;;;;1.93;1.10;;;10.30;99.90;10.20;99269.00;;;;4974154;28;88254;-67
2022/12/24 02:23:10;;;;;;;1.40;0.80;;;10.30;99.90;10.10;99269.00;;;;4961835;28;88116;-67
2022/12/24 02:26:13;;;;;;;2.77;1.10;;;10.30;99.90;10.10;99289.00;;;;4974153;28;88477;-67
2022/12/24 02:29:22;;;;;;;3.10;1.10;;;10.30;99.90;10.20;99280.00;;;;4971536;28;87763;-67
2022/12/24 02:31:48;;;;;;;1.10;0.63;;;10.30;99.90;10.20;99275.00;;;;4967302;28;88535;-67
2022/12/24 02:34:30;;;;;;;0.93;0.87;;;10.30;99.90;10.20;99296.00;;;;4971737;28;113649;-66
2022/12/24 02:37:05;;;;;;;1.37;1.03;;;10.30;99.90;10.30;99292.00;;;;4970775;28;87724;-66
2022/12/24 02:39:45;;;;;;;2.43;0.80;;;10.30;99.90;10.30;99292.00;;;;4970266;28;104915;-66
2022/12/24 02:42:16;;;;;;;3.60;1.53;;;10.40;99.90;10.30;99298.00;;;;4967971;28;100364;-65
2022/12/24 02:44:55;;;;;;;1.07;0.97;;;10.40;99.90;10.30;99299.00;;;;4967577;28;87806;-66
2022/12/24 02:47:25;;;;;;;2.40;1.07;;;10.40;99.90;10.30;99306.00;;;;4970650;28;97032;-66
2022/12/24 02:49:51;;;;;;;4.83;1.00;;;10.40;99.90;10.30;99300.00;;;;4973954;28;89031;-66
2022/12/24 02:52:39;;;;;;;2.30;1.03;;;10.40;99.90;10.30;99310.00;;;;4971446;28;108820;-67
2022/12/24 02:55:15;;;;;;;1.10;0.80;;;10.40;99.90;10.30;99319.00;;;;4971269;28;88104;-66
2022/12/24 02:58:24;;;;;;;7.77;1.33;;;10.40;99.90;10.20;99324.00;;;;4969792;28;112679;-65
2022/12/24 03:01:16;;;;;;;6.20;1.03;;;10.40;99.90;10.20;99326.00;;;;4970055;28;99936;-66
2022/12/24 03:04:15;;;;;;;1.37;1.03;;;9.90;99.90;10.20;99326.00;;;;4971259;28;87923;-66
2022/12/24 03:07:05;;;;;;;3.00;1.23;;;10.30;99.90;10.20;99335.00;;;;4970647;28;90203;-66
2022/12/24 03:10:06;;;;;;;4.70;1.30;;;10.30;99.90;10.10;99347.00;;;;4973393;28;88120;-66
2022/12/24 03:12:40;;;;;;;3.17;1.03;;;10.30;99.90;10.10;99352.00;;;;4969674;28;87748;-66
2022/12/24 03:15:08;;;;;;;1.43;0.93;;;10.20;99.90;10.10;99346.00;;;;4968439;28;102173;-66
2022/12/24 03:17:37;;;;;;;4.50;1.33;;;10.30;99.90;10.10;99356.00;;;;4971306;28;103748;-67
2022/12/24 03:20:05;;;;;;;3.33;1.27;;;10.20;99.90;10.10;99359.00;;;;4973152;28;89309;-66
2022/12/24 03:22:33;;;;;;;3.70;1.53;;;10.20;99.90;10.10;99356.00;;;;4971021;28;88044;-66
2022/12/24 03:25:00;;;;;;;5.50;1.07;;;10.20;99.90;10.20;99370.00;;;;4970091;28;98779;-65
2022/12/24 03:27:29;;;;;;;1.50;1.17;;;10.40;99.90;10.20;99371.00;;;;4971177;28;108720;-66
2022/12/24 03:29:56;;;;;;;2.47;1.20;;;10.30;99.90;10.20;99373.00;;;;4969942;28;88271;-66
2022/12/24 03:32:29;;;;;;;3.43;0.90;;;10.30;99.90;10.20;99375.00;;;;4968179;28;88690;-66
2022/12/24 03:34:55;;;;;;;1.30;0.67;;;10.30;99.90;10.30;99383.00;;;;4967935;28;89187;-66
2022/12/24 03:37:22;;;;;;;3.37;1.10;;;10.30;99.90;10.30;99389.00;;;;4971771;28;118145;-66
2022/12/24 03:39:48;;;;;;;2.07;1.23;;;10.40;99.90;10.30;99393.00;;;;4970133;28;88283;-66
2022/12/24 03:42:13;;;;;;;1.90;0.87;;;10.40;99.90;10.30;99387.00;;;;4973372;28;87677;-66
2022/12/24 03:44:39;;;;;;;0.77;0.77;;;10.50;99.90;10.30;99389.00;;;;4967912;28;106802;-67
2022/12/24 03:47:05;;;;;;;2.53;0.80;;;10.40;99.90;10.30;99385.00;;;;4969662;28;117173;-66
2022/12/24 03:49:30;;;;;;;4.50;1.60;;;10.40;99.90;10.30;99395.00;;;;4970044;28;117944;-66
2022/12/24 03:51:56;;;;;;;1.87;1.00;;;10.30;99.90;10.20;99392.00;;;;4969306;28;108574;-66
2022/12/24 03:54:22;;;;;;;3.80;1.27;;;10.30;99.90;10.20;99406.00;;;;4970515;28;109289;-66
2022/12/24 03:56:47;;;;;;;1.30;1.17;;;10.30;99.90;10.10;99406.00;;;;4964107;28;118562;-67
2022/12/24 03:59:13;;;;;;;1.00;0.90;;;10.30;99.90;10.10;99416.00;;;;4950540;28;117586;-66
2022/12/24 04:01:39;;;;;;;4.33;1.50;;;10.20;99.90;10.10;99417.00;;;;4970659;28;111321;-66
2022/12/24 04:04:05;;;;;;;2.57;1.20;;;10.20;99.90;10.10;99415.00;;;;4972809;28;87925;-66
2022/12/24 04:06:30;;;;;;;4.10;1.03;;;10.20;99.90;10.10;99410.00;;;;4965392;28;117358;-66
2022/12/24 04:08:58;;;;;;;0.63;0.60;;;10.20;99.90;10.10;99421.00;;;;4971871;28;89773;-66
2022/12/24 04:11:23;;;;;;;2.80;1.20;;;10.10;99.90;10.10;99420.00;;;;4983950;28;88197;-66
2022/12/24 04:13:49;;;;;;;6.17;1.30;;;10.20;99.90;10.10;99419.00;;;;4990888;28;108123;-67
2022/12/24 04:16:16;;;;;;;5.60;1.27;;;10.20;99.90;10.10;99427.00;;;;4989473;28;117930;-66
2022/12/24 04:18:42;;;;;;;1.80;1.10;;;10.20;99.90;10.10;99427.00;;;;4988251;28;88171;-67
2022/12/24 04:21:09;;;;;;;5.93;1.23;;;10.20;99.90;10.10;99434.00;;;;4967884;28;93599;-65
2022/12/24 04:23:36;;;;;;;6.47;1.77;;;10.20;99.90;10.10;99441.00;;;;4984555;28;88107;-66
2022/12/24 04:26:05;;;;;;;6.63;1.97;;;10.20;99.90;10.10;99449.00;;;;4988055;28;109652;-69
2022/12/24 04:28:31;;;;;;;2.53;1.07;;;10.20;99.90;10.00;99462.00;;;;4988851;28;88751;-71
2022/12/24 04:31:06;;;;;;;3.33;1.43;;;10.20;99.90;10.00;99462.00;;;;4990489;28;93789;-71
2022/12/24 04:33:32;;;;;;;6.07;0.77;;;10.10;99.90;9.90;99453.00;;;;4989366;28;87851;-71
2022/12/24 04:35:59;;;;;;;6.70;1.47;;;10.10;99.90;9.80;99458.00;;;;4989893;28;88988;-70
2022/12/24 04:38:25;;;;;;;1.47;0.70;;;9.90;99.90;9.80;99463.00;;;;4991024;28;90007;-71
2022/12/24 04:41:05;;;;;;;1.50;0.53;;;9.80;99.90;9.60;99458.00;;;;4989869;28;109328;-76
2022/12/24 04:43:31;;;;;;;2.70;0.80;;;9.80;99.90;9.60;99464.00;;;;4975974;28;90315;-74
2022/12/24 04:46:19;;;;;;;2.47;0.50;;;9.70;99.90;9.50;99466.00;;;;4972594;28;102394;-74
2022/12/24 04:48:47;;;;;;;2.47;0.87;;;9.70;99.90;9.50;99475.00;;;;4975730;28;88945;-74
2022/12/24 04:51:14;;;;;;;0.73;0.53;;;9.60;99.90;9.50;99479.00;;;;4993471;28;87684;-73
2022/12/24 04:53:41;;;;;;;1.53;0.50;;;9.60;99.90;9.40;99492.00;;;;4976822;28;88036;-73
2022/12/24 04:56:15;;;;;;;0.20;0.20;;;9.50;99.90;9.40;99497.00;;;;4990600;28;88850;-73
2022/12/24 04:58:40;;;;;;;2.97;0.40;;;9.60;99.90;9.30;99485.00;;;;4973020;28;88631;-72
2022/12/24 05:01:11;;;;;;;1.00;0.23;;;9.50;99.90;9.30;99504.00;;;;4993269;28;108450;-73
2022/12/24 05:03:37;;;;;;;6.23;0.40;;;9.40;99.90;9.30;99501.00;;;;4994249;28;87105;-74
2022/12/24 05:06:11;;;;;;;0.47;0.20;;;9.40;99.90;9.30;99510.00;;;;4976631;28;117738;-75
2022/12/24 05:08:37;;;;;;;0.20;0.20;;;9.40;99.90;9.30;99524.00;;;;4992188;28;89313;-73
2022/12/24 05:11:04;;;;;;;2.07;0.30;;;9.30;99.90;9.30;99529.00;;;;4991943;28;91080;-74
2022/12/24 05:13:30;;;;;;;0.97;0.43;;;9.40;99.90;9.20;99526.00;;;;4994225;28;101070;-71
2022/12/24 05:15:55;;;;;;;2.43;0.27;;;9.30;99.90;9.20;99526.00;;;;4956514;28;112491;-74
2022/12/24 05:18:21;;;;;;;2.63;0.33;;;9.30;99.90;9.20;99528.00;;;;4992695;28;117288;-72
2022/12/24 05:20:47;;;;;;;1.30;0.17;;;9.30;99.90;9.20;99530.00;;;;4992816;28;87871;-74
2022/12/24 05:26:33;;;;;;;0.17;0.17;;;9.30;99.90;9.10;99534.00;;;;4992043;28;88113;-73
2022/12/24 05:29:01;;;;;;;0.17;0.17;;;9.30;99.90;9.20;99535.00;;;;4994637;27;103449;-73
2022/12/24 05:31:29;;;;;;;0.30;0.30;;;9.30;99.90;9.20;99538.00;;;;4976965;28;98162;-73
2022/12/24 05:33:55;;;;;;;0.10;0.10;;;9.30;99.90;9.20;99552.00;;;;4994226;28;87982;-75
2022/12/24 05:36:22;;;;;;;0.40;0.37;;;10.10;99.90;9.20;99555.00;;;;4992292;28;88967;-71
2022/12/24 05:38:48;;;;;;;0.63;0.37;;;9.30;99.90;9.20;99555.00;;;;4957662;28;108950;-76
2022/12/24 05:41:14;;;;;;;0.30;0.30;;;9.30;99.90;9.30;99555.00;;;;4993596;28;109802;-73
2022/12/24 05:43:40;;;;;;;2.00;0.83;;;9.40;99.90;9.30;99561.00;;;;4989126;28;106933;-77
2022/12/24 05:46:17;;;;;;;0.50;0.30;;;9.30;99.90;9.30;99567.00;;;;4992962;28;88651;-74
2022/12/24 05:48:43;;;;;;;0.93;0.57;;;9.40;99.90;9.30;99566.00;;;;4975889;28;88214;-73
2022/12/24 05:51:11;;;;;;;0.63;0.63;;;9.40;99.90;9.30;99569.00;;;;4977254;28;90229;-76
2022/12/24 05:53:39;;;;;;;0.50;0.40;;;9.40;99.90;9.30;99572.00;;;;4994724;28;87077;-75
2022/12/24 05:56:12;;;;;;;1.90;0.90;;;10.30;99.90;9.30;99571.00;;;;4970050;28;90626;-76
2022/12/24 05:58:39;;;;;;;1.87;0.97;;;9.40;99.90;9.30;99576.00;;;;4977036;28;97631;-74
2022/12/24 06:01:05;;;;;;;1.00;0.57;;;9.40;99.90;9.30;99585.00;;;;4991534;28;88909;-77
2022/12/24 06:03:32;;;;;;;2.00;0.90;;;9.40;99.90;9.30;99586.00;;;;4992144;28;87721;-74
2022/12/24 06:06:10;;;;;;;0.80;0.70;;;9.40;99.90;9.30;99593.00;;;;4990520;28;88840;-73
2022/12/24 06:08:37;;;;;;;1.10;0.93;;;9.40;99.90;9.30;99592.00;;;;4991449;28;93964;-76
2022/12/24 06:11:07;;;;;;;3.90;1.20;;;9.40;99.90;9.30;99600.00;;;;4989950;28;98812;-75
2022/12/24 06:13:33;;;;;;;2.87;0.90;;;9.40;99.90;9.30;99593.00;;;;4989697;28;100369;-73
2022/12/24 06:16:02;;;;;;;1.37;1.00;;;9.40;99.90;9.30;99608.00;;;;4989452;27;89027;-75
2022/12/24 06:18:30;;;;;;;5.50;1.23;;;9.40;99.90;9.30;99610.00;;;;4974226;28;88640;-76
2022/12/24 06:20:57;;;;;;;2.00;1.20;;;9.40;99.90;9.30;99614.00;;;;4990694;28;87840;-74
2022/12/24 06:23:24;;;;;;;5.17;1.50;;;9.40;99.90;9.30;99624.00;;;;4985809;28;87801;-73
2022/12/24 06:25:50;;;;;;;1.03;0.97;;;9.40;99.90;9.30;99621.00;;;;4987745;28;92819;-74
2022/12/24 06:28:17;;;;;;;7.20;1.80;;;9.40;99.90;9.30;99634.00;;;;4955049;28;113276;-72
2022/12/24 06:30:48;;;;;;;2.23;1.17;;;9.40;99.90;9.30;99629.00;;;;4987103;28;111542;-75
2022/12/24 06:33:14;;;;;;;2.27;1.17;;;9.40;99.90;9.30;99630.00;;;;4956067;28;87913;-77
2022/12/24 06:35:40;;;;;;;1.87;1.30;;;9.40;99.90;9.20;99648.00;;;;4972113;28;88616;-72
2022/12/24 06:38:06;;;;;;;3.13;1.03;;;9.30;99.90;9.20;99643.00;;;;4985486;28;101792;-76
2022/12/24 06:40:31;;;;;;;1.40;0.83;;;9.30;99.90;9.30;99647.00;;;;4956964;28;110920;-75
2022/12/24 06:42:57;;;;;;;4.40;1.77;;;9.40;99.90;9.30;99651.00;;;;4988710;28;108613;-75
2022/12/24 06:45:23;;;;;;;0.80;0.80;;;9.30;99.90;9.30;99664.00;;;;4955563;28;118198;-72
2022/12/24 06:47:49;;;;;;;4.43;1.30;;;9.40;99.90;9.20;99667.00;;;;4985067;28;116678;-74
2022/12/24 06:50:14;;;;;;;1.67;1.30;;;9.30;99.90;9.20;99656.00;;;;4984563;28;110319;-73
2022/12/24 06:52:40;;;;;;;1.63;1.00;;;9.30;99.90;9.20;99676.00;;;;4987586;28;92353;-71
2022/12/24 06:55:06;;;;;;;5.07;1.37;;;9.30;99.90;9.20;99689.00;;;;4989618;28;95640;-70
2022/12/24 06:57:32;;;;;;;2.23;0.90;;;9.30;99.90;9.20;99686.00;;;;4988463;28;102722;-72
2022/12/24 06:59:58;;;;;;;10.60;1.73;;;9.30;99.90;9.20;99685.00;;;;4969702;28;109977;-71
2022/12/24 07:02:24;;;;;;;2.43;1.13;;;9.30;99.90;9.20;99694.00;;;;4989324;28;87759;-72
2022/12/24 07:04:50;;;;;;;1.23;1.00;;;9.30;99.90;9.20;99687.00;;;;4987780;28;89094;-73
2022/12/24 07:07:16;;;;;;;3.80;1.70;;;9.30;99.90;9.20;99698.00;;;;4983911;28;116762;-73
2022/12/24 07:09:41;;;;;;;2.40;1.67;;;9.30;99.90;9.20;99700.00;;;;4973506;28;109059;-73
2022/12/24 07:12:07;;;;;;;2.07;0.87;;;9.30;99.90;9.20;99702.00;;;;4989089;28;109275;-71
2022/12/24 07:14:33;;;;;;;8.70;1.93;;;9.40;99.90;9.20;99709.00;;;;4985368;28;117881;-74
2022/12/24 07:16:58;;;;;;;5.53;1.57;;;9.30;99.90;9.20;99711.00;;;;4989993;28;118399;-74
2022/12/24 07:19:24;;;;;;;3.90;1.30;;;9.40;99.90;9.20;99712.00;;;;4968653;28;109085;-70
2022/12/24 07:21:50;;;;;;;2.90;0.90;;;9.30;99.90;9.20;99717.00;;;;4987108;28;109368;-71
2022/12/24 07:24:16;;;;;;;0.83;0.83;;;9.30;99.90;9.20;99722.00;;;;4986343;28;117362;-72
2022/12/24 07:26:41;;;;;;;1.83;1.40;;;9.30;99.90;9.20;99715.00;;;;4987594;28;108845;-74
2022/12/24 07:29:07;;;;;;;3.13;1.20;;;9.30;99.90;9.20;99716.00;;;;4987477;27;110783;-73
2022/12/24 07:31:33;;;;;;;2.23;1.40;;;9.30;99.90;9.10;99727.00;;;;4988103;28;108838;-73
2022/12/24 07:33:59;;;;;;;7.50;1.70;;;9.30;99.90;9.20;99742.00;;;;4987353;28;117640;-71
2022/12/24 07:36:27;;;;;;;2.73;1.07;;;9.20;99.90;9.10;99737.00;;;;4988252;28;88165;-71
2022/12/24 07:38:53;;;;;;;4.57;1.53;;;9.30;99.90;9.10;99737.00;;;;4978399;27;88890;-72
2022/12/24 07:41:19;;;;;;;5.50;1.30;;;9.20;99.90;9.20;99737.00;;;;4987247;27;88304;-74
2022/12/24 07:43:45;;;;;;;8.33;1.33;;;9.30;99.90;9.20;99736.00;;;;4985599;28;88176;-73
2022/12/24 07:46:11;;;;;;;0.93;0.77;;;9.30;99.90;9.20;99756.00;;;;4971207;28;107711;-74
2022/12/24 07:48:37;;;;;;;7.53;1.97;;;9.80;99.90;9.20;99760.00;;;;4983371;28;109020;-72
2022/12/24 07:51:03;;;;;;;4.60;1.60;;;9.30;99.90;9.20;99768.00;;;;4973047;28;108577;-75
2022/12/24 07:53:30;;;;;;;1.67;1.13;;;9.30;99.90;9.20;99765.00;;;;4987618;28;103335;-72
2022/12/24 07:55:56;;;;;;;3.97;1.70;;;9.30;99.90;9.20;99780.00;;;;4988455;28;87772;-72
2022/12/24 07:58:23;;;;;;;1.37;0.93;;;9.30;99.90;9.20;99768.00;;;;4987988;28;88306;-73
2022/12/24 08:00:49;;;;;;;2.57;1.30;;;9.30;99.90;9.20;99781.00;;;;4989610;28;87914;-75
2022/12/24 08:03:21;;;;;;;2.07;0.80;;;9.40;99.90;9.20;99775.00;;;;4968242;28;118169;-74
2022/12/24 08:05:47;;;;;;;1.93;1.27;;;9.40;99.90;9.30;99778.00;;;;4967827;28;118346;-72
2022/12/24 08:08:13;;;;;;;2.70;1.17;;;9.40;99.90;9.30;99780.00;;;;4983971;28;88150;-72
2022/12/24 08:10:40;;;;;;;4.57;1.63;;;9.40;99.90;9.30;99789.00;;;;4985673;28;93129;-71
2022/12/24 08:13:06;;;;;;;5.40;1.50;;;9.50;99.90;9.30;99779.00;;;;4985862;28;89063;-69
2022/12/24 08:15:31;;;;;;;4.47;1.97;;;9.50;99.90;9.40;99787.00;;;;4981419;28;117805;-70
2022/12/24 08:17:57;;;;;;;4.27;1.40;;;9.70;99.90;9.40;99788.00;;;;4985915;28;111139;-70
2022/12/24 08:20:23;;;;;;;3.73;1.50;;;9.50;99.90;9.50;99806.00;;;;4971363;28;96513;-70
2022/12/24 08:22:48;;;;;;;2.20;1.30;;;9.60;99.90;9.50;99798.00;;;;4984568;28;117596;-70
2022/12/24 08:25:14;;;;;;;5.40;1.60;;;9.60;99.90;9.50;99802.00;;;;4984316;28;116899;-70
2022/12/24 08:27:40;;;;;;;6.23;1.40;;;9.60;99.90;9.50;99804.00;;;;4985534;28;111870;-66
2022/12/24 08:30:07;;;;;;;2.67;1.40;;;9.60;99.90;9.60;99824.00;;;;4987118;27;108122;-67
2022/12/24 08:32:32;;;;;;;2.90;1.10;;;9.70;99.90;9.60;99795.00;;;;4985204;28;100232;-66
2022/12/24 08:34:59;;;;;;;3.10;1.03;;;9.70;99.90;9.60;99811.00;;;;4983265;28;117189;-67
2022/12/24 08:37:24;;;;;;;5.63;1.77;;;9.70;99.90;9.60;99803.00;;;;4988114;28;88246;-68
2022/12/24 08:39:50;;;;;;;2.80;1.17;;;9.70;99.90;9.70;99826.00;;;;4985742;28;107561;-68
2022/12/24 08:42:16;;;;;;;1.40;1.27;;;9.80;99.90;9.70;99825.00;;;;4984952;28;117239;-66
2022/12/24 08:44:42;;;;;;;4.50;1.63;;;9.80;99.90;9.70;99839.00;;;;4986497;28;116960;-67
2022/12/24 08:47:07;;;;;;;4.27;1.40;;;9.80;99.90;9.80;99836.00;;;;4972443;28;109590;-67
2022/12/24 08:49:33;;;;;;;1.90;1.53;;;9.90;99.90;9.80;99841.00;;;;4985144;28;108633;-68
2022/12/24 08:51:59;;;;;;;2.00;1.40;;;9.90;99.90;9.80;99849.00;;;;4986180;28;120002;-67
2022/12/24 08:54:25;;;;;;;7.77;1.47;;;9.90;99.90;9.90;99856.00;;;;4982236;28;118562;-68
2022/12/24 08:56:50;;;;;;;3.97;1.70;;;9.90;99.90;9.90;99861.00;;;;4985033;28;87825;-67
2022/12/24 08:59:16;;;;;;;8.07;1.67;;;9.90;99.90;9.90;99852.00;;;;4984065;28;110408;-67
2022/12/24 09:01:42;;;;;;;6.43;2.00;;;10.00;99.90;9.90;99865.00;;;;4986356;28;116729;-67
2022/12/24 09:04:08;;;;;;;1.80;1.00;;;9.90;99.90;10.00;99860.00;;;;4985216;27;115900;-69
2022/12/24 09:06:34;;;;;;;1.60;0.90;;;10.00;99.90;10.00;99868.00;;;;4987769;27;88126;-69
2022/12/24 09:09:00;;;;;;;2.23;1.40;;;10.00;99.90;10.10;99865.00;;;;4982530;28;87252;-67
2022/12/24 09:11:26;;;;;;;8.93;1.53;;;10.10;99.90;10.10;99867.00;;;;4980426;28;110121;-68
2022/12/24 09:13:53;;;;;;;1.00;0.90;;;10.20;99.90;10.20;99870.00;;;;4986238;28;104797;-67
2022/12/24 09:16:20;;;;;;;5.23;1.57;;;10.30;99.90;10.30;99882.00;;;;4965465;28;88853;-67
2022/12/24 09:18:45;;;;;;;2.17;1.20;;;10.30;99.90;10.30;99878.00;;;;4985304;28;89296;-67
2022/12/24 09:21:14;;;;;;;2.53;1.00;;;10.40;99.90;10.40;99894.00;;;;4973247;28;117958;-67
2022/12/24 09:23:47;;;;;;;2.65;1.10;;;10.50;99.90;10.60;99896.00;;;;4295545;28;10002446;-66
2022/12/24 09:26:22;;;;;;;5.23;1.57;;;10.60;99.90;10.60;99897.00;;;;4941415;28;105346;-67
2022/12/24 09:28:48;;;;;;;2.50;0.80;;;10.60;99.90;10.60;99890.00;;;;4941742;28;103939;-67
2022/12/24 09:31:15;;;;;;;3.63;1.33;;;10.60;99.90;10.60;99907.00;;;;4942725;28;103930;-67
2022/12/24 09:33:43;;;;;;;3.13;1.67;;;10.60;99.90;10.70;99911.00;;;;4947612;28;88389;-67
2022/12/24 09:36:09;;;;;;;2.27;1.30;;;10.70;99.90;11.00;99910.00;;;;4946848;28;94291;-66
2022/12/24 09:38:37;;;;;;;2.27;1.03;;;10.90;99.90;11.00;99910.00;;;;4942913;28;98650;-67
2022/12/24 09:41:24;;;;;;;5.63;1.87;;;11.00;99.90;11.00;99901.00;;;;4946511;28;88942;-68
2022/12/24 09:44:01;;;;;;;4.57;1.40;;;11.10;99.90;10.90;99923.00;;;;4958109;28;89671;-68
2022/12/24 09:46:41;;;;;;;1.03;0.70;;;10.90;99.90;11.00;99919.00;;;;4944969;28;109039;-68
2022/12/24 09:49:16;;;;;;;1.37;0.87;;;11.00;99.90;10.90;99930.00;;;;4942775;28;87987;-67
2022/12/24 09:51:54;;;;;;;6.23;2.10;;;11.00;99.90;10.90;99940.00;;;;4948197;28;88414;-68
2022/12/24 09:54:31;;;;;;;4.23;1.73;;;11.00;99.90;10.80;99953.00;;;;4932144;28;109220;-67
2022/12/24 09:57:05;;;;;;;4.77;1.67;;;10.90;99.90;10.70;99955.00;;;;4942710;28;103337;-67
2022/12/24 09:59:44;;;;;;;4.50;1.50;;;10.90;99.90;10.70;99958.00;;;;4930731;28;92554;-67
2022/12/24 10:02:14;;;;;;;4.13;0.90;;;10.80;99.90;10.70;99969.00;;;;4959323;28;88127;-67
2022/12/24 10:04:41;;;;;;;2.60;0.80;;;10.80;99.90;10.70;99980.00;;;;4927589;28;88579;-68
2022/12/24 10:07:30;;;;;;;3.27;1.07;;;10.80;99.90;10.70;99971.00;;;;4944414;28;88933;-67
2022/12/24 10:10:30;;;;;;;3.17;1.37;;;10.80;99.90;10.70;99972.00;;;;4945100;28;87922;-67
2022/12/24 10:13:40;;;;;;;2.70;1.23;;;10.80;99.90;10.70;99967.00;;;;4931106;28;87914;-68
2022/12/24 10:16:35;;;;;;;5.10;1.60;;;10.80;99.90;10.70;99975.00;;;;4888375;28;88076;-67
2022/12/24 10:19:43;;;;;;;1.43;1.00;;;10.80;99.90;10.70;99982.00;;;;4929230;28;112985;-67
2022/12/24 10:22:36;;;;;;;1.43;0.80;;;10.80;99.90;10.70;99980.00;;;;4944407;28;88174;-69
2022/12/24 10:25:22;;;;;;;2.93;0.87;;;10.80;99.90;10.70;99981.00;;;;4931145;28;96749;-69
2022/12/24 10:27:47;;;;;;;0.73;0.73;;;10.80;99.90;10.70;99989.00;;;;4928765;28;87413;-68
2022/12/24 10:30:18;;;;;;;3.53;1.80;;;10.80;99.90;10.70;99983.00;;;;4944116;28;119399;-68
2022/12/24 10:32:47;;;;;;;3.33;1.43;;;10.70;99.90;10.80;100004.00;;;;4948260;28;87714;-68
2022/12/24 10:35:15;;;;;;;2.60;1.17;;;10.80;99.90;11.10;99996.00;;;;4932212;28;88978;-69
2022/12/24 10:37:47;;;;;;;2.80;1.77;;;11.00;99.90;11.60;99999.00;;;;4950843;28;88157;-69
2022/12/24 10:40:25;;;;;;;4.70;1.50;;;11.80;99.90;12.00;99998.00;;;;4944651;28;88946;-70
2022/12/24 10:42:50;;;;;;;2.37;1.10;;;11.80;99.90;12.30;100015.00;;;;4926292;28;96650;-69
2022/12/24 10:45:20;;;;;;;4.47;1.47;;;12.20;99.90;12.30;100021.00;;;;4948010;28;107421;-68
2022/12/24 10:47:51;;;;;;;4.60;1.10;;;12.30;99.90;12.30;100029.00;;;;4946534;28;109355;-67
2022/12/24 10:50:36;;;;;;;5.10;1.70;;;12.30;99.90;12.20;100018.00;;;;4953452;28;106271;-69
2022/12/24 10:53:13;;;;;;;7.60;1.97;;;12.30;99.90;12.10;100032.00;;;;4937982;28;87284;-67
2022/12/24 10:55:39;;;;;;;4.83;1.37;;;12.20;99.90;12.00;100045.00;;;;4939222;28;88434;-69
2022/12/24 10:58:12;;;;;;;5.30;1.47;;;12.10;99.90;11.90;100045.00;;;;4941419;28;117521;-69
2022/12/24 11:00:39;;;;;;;4.20;1.43;;;11.90;99.90;11.80;100042.00;;;;4923207;28;108303;-69
2022/12/24 11:03:11;;;;;;;6.80;1.57;;;11.90;99.90;11.70;100046.00;;;;4940986;28;108965;-69
2022/12/24 11:05:38;;;;;;;3.10;1.03;;;11.80;99.90;11.70;100044.00;;;;4946707;28;88083;-68
2022/12/24 11:08:13;;;;;;;2.83;0.83;;;11.80;99.90;11.60;100048.00;;;;4944224;28;93716;-69
2022/12/24 11:10:57;;;;;;;5.63;1.20;;;11.70;99.90;11.60;100058.00;;;;4944209;28;119698;-69
2022/12/24 11:13:33;;;;;;;3.63;1.70;;;11.70;99.90;11.60;100058.00;;;;4927679;28;87898;-68
2022/12/24 11:16:13;;;;;;;3.90;1.00;;;11.60;99.90;11.50;100057.00;;;;4945799;28;87921;-69
2022/12/24 11:18:48;;;;;;;4.30;1.20;;;11.60;99.90;11.50;100054.00;;;;4946272;28;89653;-69